weather.gov     
National Weather Service

Terminal Aerodrome Forecast
NWS Homepage
This page is being discontinued on March 12, 2014.
The same data is available at this site. Please update your bookmarks.
Thank you, and we apologize for the inconvenience.
Please send an email to SR-SRH.Webmaster@noaa.gov with any concerns.


Current Version
Previous Version:    01  02  03  04  05  06  07  08  09  10  11  12  13  14  15  16  17  18  19  20  21  22  23  24  25  26  27  28  29  30  
   31  32  33  34  35  36  37  38  39  40  41  42  43  44  45  46  47  48  49  
[Printable]
048
FTUS41 KRLX 021400 AAB
TAFEKN
TAF AMD
KEKN 021457Z 0215/0312 24010KT P6SM SCT025 BKN050
      TEMPO 0215/0217 BKN025
     FM021800 25010G15KT P6SM VCTS SCT045CB
     FM022200 25010G16KT 6SM TSRA BR BKN045CB
     FM030100 26006KT P6SM VCTS BKN050CB
     FM030300 28003KT 6SM BR BKN080
     FM030400 00000KT 2SM BR SCT001
     FM030600 00000KT 1/4SM FG VV001=


U.S. Dept. of Commerce
NOAA National Weather Service
1325 East West Highway
Silver Spring, MD 20910
E-mail: w-nws.webmaster@noaa.gov
Page last modified: May 16, 2007
NATIONAL WEATHER SERVICE: for Safety, for Work, for Fun - FOR LIFE